Time;durP1;ratioP1;P1;durP2;ratioP2;P2;SDS_P1;SDS_P2;PMS_P1;PMS_P2;Temp;Humidity;BMP_temperature;BMP_pressure;BME280_temperature;BME280_humidity;BME280_pressure;Samples;Min_cycle;Max_cycle;Signal;HPM_P1;HPM_P2
2023/07/20 00:01:24;;;;;;;6.15;2.83;;;;;;;;;;5110836;28;20019;-63
2023/07/20 00:03:54;;;;;;;4.70;3.13;;;;;;;;;;5098026;28;20099;-63
2023/07/20 00:06:20;;;;;;;6.15;3.42;;;;;;;;;;5098546;28;20274;-63
2023/07/20 00:08:45;;;;;;;3.88;2.47;;;;;;;;;;5094330;28;20119;-63
2023/07/20 00:11:10;;;;;;;6.67;3.03;;;;;;;;;;5091604;28;20020;-63
2023/07/20 00:13:35;;;;;;;5.40;3.53;;;;;;;;;;5094454;28;20273;-63
2023/07/20 00:16:01;;;;;;;5.45;3.92;;;;;;;;;;5101024;28;20032;-64
2023/07/20 00:18:26;;;;;;;6.40;3.23;;;;;;;;;;5091027;28;20036;-63
2023/07/20 00:20:51;;;;;;;4.70;3.13;;;;;;;;;;5091213;28;20289;-63
2023/07/20 00:23:16;;;;;;;4.57;3.13;;;;;;;;;;5091686;28;20282;-63
2023/07/20 00:25:41;;;;;;;6.30;4.00;;;;;;;;;;5092906;28;20429;-63
2023/07/20 00:28:07;;;;;;;7.80;3.80;;;;;;;;;;5092881;28;20270;-63
2023/07/20 00:30:32;;;;;;;5.80;3.77;;;;;;;;;;5094839;28;20266;-63
2023/07/20 00:32:57;;;;;;;7.50;4.17;;;;;;;;;;5108082;28;20266;-63
2023/07/20 00:35:22;;;;;;;6.25;3.55;;;;;;;;;;5094448;28;20270;-63
2023/07/20 00:37:48;;;;;;;7.07;4.33;;;;;;;;;;5095207;28;20099;-63
2023/07/20 00:40:13;;;;;;;6.50;3.93;;;;;;;;;;5103484;28;20276;-63
2023/07/20 00:42:39;;;;;;;9.02;3.78;;;;;;;;;;5102602;28;20282;-63
2023/07/20 00:45:04;;;;;;;6.63;4.25;;;;;;;;;;5098895;28;20494;-63
2023/07/20 00:47:30;;;;;;;4.75;3.58;;;;;;;;;;5105587;28;20186;-63
2023/07/20 00:49:55;;;;;;;6.60;3.58;;;;;;;;;;5113833;28;20019;-62
2023/07/20 00:52:21;;;;;;;6.13;3.83;;;;;;;;;;5108285;28;20028;-63
2023/07/20 00:54:47;;;;;;;8.50;3.90;;;;;;;;;;5111562;28;20040;-63
2023/07/20 00:57:14;;;;;;;9.90;4.00;;;;;;;;;;5113888;28;20482;-62
2023/07/20 00:59:39;;;;;;;6.88;4.30;;;;;;;;;;5107881;28;20031;-63
2023/07/20 01:02:04;;;;;;;10.23;4.30;;;;;;;;;;5105482;28;20027;-63
2023/07/20 01:04:30;;;;;;;4.57;3.58;;;;;;;;;;5076385;28;20028;-63
2023/07/20 01:07:02;;;;;;;13.30;4.53;;;;;;;;;;5093839;28;20031;-63
2023/07/20 01:09:48;;;;;;;11.60;4.32;;;;;;;;;;5094100;28;20020;-63
2023/07/20 01:12:18;;;;;;;5.68;3.45;;;;;;;;;;5105935;28;20036;-62
2023/07/20 01:14:44;;;;;;;4.60;3.20;;;;;;;;;;5094430;28;20050;-63
2023/07/20 01:17:09;;;;;;;8.15;4.70;;;;;;;;;;5100466;28;20020;-63
2023/07/20 01:19:35;;;;;;;4.33;3.10;;;;;;;;;;5113517;28;20481;-63
2023/07/20 01:22:02;;;;;;;7.35;4.43;;;;;;;;;;5094530;28;20282;-63
2023/07/20 01:24:28;;;;;;;9.73;4.15;;;;;;;;;;5093655;28;20447;-63
2023/07/20 01:26:53;;;;;;;8.30;4.30;;;;;;;;;;5112283;28;20025;-62
2023/07/20 01:29:37;;;;;;;7.90;3.83;;;;;;;;;;5113436;28;20015;-63
2023/07/20 01:32:03;;;;;;;5.22;3.13;;;;;;;;;;5101408;28;20339;-63
2023/07/20 01:34:29;;;;;;;11.30;3.80;;;;;;;;;;5113081;28;20466;-63
2023/07/20 01:36:55;;;;;;;7.07;4.10;;;;;;;;;;5113437;28;20026;-65
2023/07/20 01:39:21;;;;;;;6.63;3.47;;;;;;;;;;5112788;28;20374;-63
2023/07/20 01:41:46;;;;;;;8.63;3.55;;;;;;;;;;5108542;28;20081;-65
2023/07/20 01:44:12;;;;;;;4.95;3.13;;;;;;;;;;5103587;28;20027;-64
2023/07/20 01:46:38;;;;;;;6.03;3.20;;;;;;;;;;5106549;28;20028;-66
2023/07/20 01:49:03;;;;;;;5.78;3.67;;;;;;;;;;5093510;28;20028;-63
2023/07/20 01:51:28;;;;;;;10.57;3.35;;;;;;;;;;5109587;28;20453;-64
2023/07/20 01:53:54;;;;;;;6.78;3.25;;;;;;;;;;5102207;28;20069;-64
2023/07/20 01:56:20;;;;;;;8.45;3.92;;;;;;;;;;5093317;28;20340;-64
2023/07/20 01:58:45;;;;;;;6.45;3.35;;;;;;;;;;5093154;28;20040;-64
2023/07/20 02:01:10;;;;;;;6.03;3.38;;;;;;;;;;5107006;28;20030;-64
2023/07/20 02:03:35;;;;;;;5.45;3.42;;;;;;;;;;5093257;28;20036;-64
2023/07/20 02:06:01;;;;;;;6.70;3.58;;;;;;;;;;5097694;28;20488;-64
2023/07/20 02:08:26;;;;;;;6.63;3.05;;;;;;;;;;5098611;28;20035;-64
2023/07/20 02:10:51;;;;;;;7.90;4.13;;;;;;;;;;5100023;28;20016;-64
2023/07/20 02:13:16;;;;;;;9.43;4.10;;;;;;;;;;5112121;28;20269;-63
2023/07/20 02:15:42;;;;;;;10.20;4.10;;;;;;;;;;5113069;28;20073;-64
2023/07/20 02:18:07;;;;;;;8.73;3.58;;;;;;;;;;5099069;28;20158;-64
2023/07/20 02:20:33;;;;;;;9.75;4.13;;;;;;;;;;5092660;28;20028;-64
2023/07/20 02:22:58;;;;;;;7.65;3.45;;;;;;;;;;5106607;28;20027;-63
2023/07/20 02:25:23;;;;;;;7.50;3.47;;;;;;;;;;5113050;28;20051;-64
2023/07/20 02:27:48;;;;;;;6.37;3.10;;;;;;;;;;5111624;28;20755;-63
2023/07/20 02:30:14;;;;;;;6.40;3.55;;;;;;;;;;5092738;28;20617;-64
2023/07/20 02:32:39;;;;;;;10.75;5.43;;;;;;;;;;5092405;28;20020;-63
2023/07/20 02:35:05;;;;;;;10.07;3.65;;;;;;;;;;5106046;28;20024;-64
2023/07/20 02:37:30;;;;;;;8.48;4.13;;;;;;;;;;5092866;28;20035;-64
2023/07/20 02:39:56;;;;;;;6.70;3.80;;;;;;;;;;5092743;28;20564;-64
2023/07/20 02:42:22;;;;;;;8.18;4.00;;;;;;;;;;5092558;28;20419;-63
2023/07/20 02:44:48;;;;;;;7.93;4.03;;;;;;;;;;5090145;28;20379;-64
2023/07/20 02:47:13;;;;;;;8.35;4.15;;;;;;;;;;5106841;28;20030;-64
2023/07/20 02:49:38;;;;;;;7.57;4.25;;;;;;;;;;5100295;28;20533;-64
2023/07/20 02:52:04;;;;;;;5.65;3.50;;;;;;;;;;5095694;28;20035;-64
2023/07/20 02:54:30;;;;;;;6.18;3.63;;;;;;;;;;5100245;28;20436;-65
2023/07/20 02:56:55;;;;;;;6.53;4.07;;;;;;;;;;5095999;28;20047;-65
2023/07/20 02:59:20;;;;;;;14.85;4.70;;;;;;;;;;5085235;28;20066;-64
2023/07/20 03:01:46;;;;;;;7.10;4.32;;;;;;;;;;5093447;28;20036;-64
2023/07/20 03:04:11;;;;;;;7.97;5.03;;;;;;;;;;5093522;28;20097;-64
2023/07/20 03:06:36;;;;;;;8.47;4.93;;;;;;;;;;5101674;28;20023;-64
2023/07/20 03:09:02;;;;;;;10.88;4.63;;;;;;;;;;5111782;28;20274;-64
2023/07/20 03:11:27;;;;;;;8.00;4.25;;;;;;;;;;5092622;28;20354;-65
2023/07/20 03:13:52;;;;;;;8.88;4.78;;;;;;;;;;5104598;28;20031;-64
2023/07/20 03:16:18;;;;;;;9.10;4.97;;;;;;;;;;5092708;28;20051;-64
2023/07/20 03:18:44;;;;;;;8.88;4.78;;;;;;;;;;5091811;28;20319;-65
2023/07/20 03:21:13;;;;;;;8.75;4.85;;;;;;;;;;5091559;28;20020;-64
2023/07/20 03:23:38;;;;;;;13.55;4.63;;;;;;;;;;5092008;28;20455;-64
2023/07/20 03:26:04;;;;;;;8.20;5.13;;;;;;;;;;5097981;28;20023;-64
2023/07/20 03:28:29;;;;;;;7.90;4.97;;;;;;;;;;5098313;28;20546;-64
2023/07/20 03:30:55;;;;;;;9.85;4.90;;;;;;;;;;5099058;28;20854;-64
2023/07/20 03:33:28;;;;;;;11.00;5.25;;;;;;;;;;5091258;28;20443;-63
2023/07/20 03:35:54;;;;;;;9.43;4.70;;;;;;;;;;5105005;28;20421;-64
2023/07/20 03:38:20;;;;;;;7.30;4.50;;;;;;;;;;5111520;28;20031;-64
2023/07/20 03:40:52;;;;;;;8.75;5.50;;;;;;;;;;5098469;28;20024;-64
2023/07/20 03:43:17;;;;;;;8.35;5.00;;;;;;;;;;5094877;28;20016;-64
2023/07/20 03:45:42;;;;;;;7.55;5.00;;;;;;;;;;5111373;28;20046;-64
2023/07/20 03:48:07;;;;;;;8.65;4.93;;;;;;;;;;5111408;28;20019;-64
2023/07/20 03:50:33;;;;;;;12.30;5.43;;;;;;;;;;5111566;28;20462;-63
2023/07/20 03:52:58;;;;;;;10.18;5.25;;;;;;;;;;5111144;28;20804;-64
2023/07/20 03:55:24;;;;;;;8.55;5.22;;;;;;;;;;5107247;28;20039;-64
2023/07/20 03:57:50;;;;;;;8.87;5.93;;;;;;;;;;5102049;28;20059;-64
2023/07/20 04:00:16;;;;;;;8.65;5.47;;;;;;;;;;5105737;28;20331;-64
2023/07/20 04:02:41;;;;;;;8.73;5.88;;;;;;;;;;5094429;28;20075;-64
2023/07/20 04:05:06;;;;;;;7.47;5.45;;;;;;;;;;5110464;28;20027;-64
2023/07/20 04:07:32;;;;;;;11.65;4.97;;;;;;;;;;5112297;28;20510;-64
2023/07/20 04:09:57;;;;;;;9.02;5.72;;;;;;;;;;5114454;28;20020;-64
2023/07/20 04:12:22;;;;;;;8.27;6.45;;;;;;;;;;5114454;28;20052;-63
2023/07/20 04:14:47;;;;;;;8.53;5.50;;;;;;;;;;5114462;28;20081;-64
2023/07/20 04:17:13;;;;;;;10.07;6.10;;;;;;;;;;5112119;28;20249;-63
2023/07/20 04:19:38;;;;;;;9.52;6.07;;;;;;;;;;5114770;28;20304;-64
2023/07/20 04:22:03;;;;;;;14.10;6.60;;;;;;;;;;5111138;28;20020;-63
2023/07/20 04:24:29;;;;;;;9.80;6.80;;;;;;;;;;5102655;28;20016;-65
2023/07/20 04:26:54;;;;;;;10.18;6.25;;;;;;;;;;5107275;28;20024;-64
2023/07/20 04:29:19;;;;;;;10.65;6.88;;;;;;;;;;5076123;28;20039;-64
2023/07/20 04:31:45;;;;;;;10.25;6.70;;;;;;;;;;5095079;28;20187;-64
2023/07/20 04:34:10;;;;;;;13.13;6.97;;;;;;;;;;5094450;28;20374;-64
2023/07/20 04:36:35;;;;;;;14.18;8.85;;;;;;;;;;5094333;28;20035;-64
2023/07/20 04:39:01;;;;;;;13.97;6.80;;;;;;;;;;5094022;28;20042;-64
2023/07/20 04:41:26;;;;;;;10.43;6.63;;;;;;;;;;5109911;28;20751;-64
2023/07/20 04:43:51;;;;;;;11.68;6.45;;;;;;;;;;5111606;28;20035;-62
2023/07/20 04:46:18;;;;;;;11.73;7.22;;;;;;;;;;5104069;28;20016;-64
2023/07/20 04:48:43;;;;;;;13.85;6.63;;;;;;;;;;5098880;28;20031;-64
2023/07/20 04:51:10;;;;;;;13.67;10.13;;;;;;;;;;5103453;28;20382;-64
2023/07/20 04:53:35;;;;;;;16.92;11.77;;;;;;;;;;5093977;28;20343;-64
2023/07/20 04:56:00;;;;;;;14.00;9.90;;;;;;;;;;5105646;28;20422;-64
2023/07/20 04:58:25;;;;;;;13.93;10.83;;;;;;;;;;5106796;28;20694;-64
2023/07/20 05:00:51;;;;;;;20.15;11.82;;;;;;;;;;5091187;28;20293;-64
2023/07/20 05:03:16;;;;;;;13.75;10.75;;;;;;;;;;5094972;28;20477;-64
2023/07/20 05:05:42;;;;;;;13.55;9.65;;;;;;;;;;5110137;28;20081;-64
2023/07/20 05:08:07;;;;;;;11.65;10.27;;;;;;;;;;5113029;28;20080;-64
2023/07/20 05:10:32;;;;;;;20.47;12.40;;;;;;;;;;5108891;28;20044;-64
2023/07/20 05:12:58;;;;;;;18.70;12.77;;;;;;;;;;5110112;28;20265;-64
2023/07/20 05:15:23;;;;;;;16.48;12.45;;;;;;;;;;5110991;28;20035;-64
2023/07/20 05:17:48;;;;;;;14.68;11.48;;;;;;;;;;5110180;28;20098;-64
2023/07/20 05:20:14;;;;;;;15.25;11.48;;;;;;;;;;5112447;28;20068;-64
2023/07/20 05:22:40;;;;;;;15.13;11.23;;;;;;;;;;5112982;28;20099;-64
2023/07/20 05:25:08;;;;;;;16.40;12.05;;;;;;;;;;5112508;28;20412;-64
2023/07/20 05:27:34;;;;;;;17.23;11.10;;;;;;;;;;5112352;28;20027;-64
2023/07/20 05:29:59;;;;;;;13.90;11.35;;;;;;;;;;5107881;28;20498;-64
2023/07/20 05:32:24;;;;;;;17.67;12.02;;;;;;;;;;5112959;28;20454;-64
2023/07/20 05:34:51;;;;;;;15.07;11.73;;;;;;;;;;5099244;28;20082;-64
2023/07/20 05:37:16;;;;;;;14.70;11.32;;;;;;;;;;5112677;28;20276;-64
2023/07/20 05:39:42;;;;;;;14.73;11.53;;;;;;;;;;5112308;28;20374;-64
2023/07/20 05:42:07;;;;;;;14.15;12.45;;;;;;;;;;5107160;28;20298;-64
2023/07/20 05:44:32;;;;;;;19.25;12.05;;;;;;;;;;5106057;28;20047;-64
2023/07/20 05:46:57;;;;;;;15.30;11.68;;;;;;;;;;5102018;28;20097;-64
2023/07/20 05:49:23;;;;;;;15.97;11.17;;;;;;;;;;5111030;28;20180;-64
2023/07/20 05:51:48;;;;;;;14.10;11.13;;;;;;;;;;5108466;28;20283;-64
2023/07/20 05:54:13;;;;;;;19.50;11.93;;;;;;;;;;5111723;28;20270;-65
2023/07/20 05:56:38;;;;;;;16.13;11.87;;;;;;;;;;5112334;28;20105;-64
2023/07/20 05:59:03;;;;;;;11.13;10.00;;;;;;;;;;5093325;28;20274;-64
2023/07/20 06:01:29;;;;;;;17.57;11.90;;;;;;;;;;5103392;28;20318;-64
2023/07/20 06:03:54;;;;;;;14.73;11.23;;;;;;;;;;5105944;28;20315;-64
2023/07/20 06:06:19;;;;;;;15.15;12.73;;;;;;;;;;5092898;28;20810;-64
2023/07/20 06:08:45;;;;;;;19.40;12.23;;;;;;;;;;5094194;28;20071;-64
2023/07/20 06:11:10;;;;;;;14.23;11.38;;;;;;;;;;5112188;28;20016;-64
2023/07/20 06:13:36;;;;;;;12.97;10.57;;;;;;;;;;5112207;28;20040;-64
2023/07/20 06:16:01;;;;;;;16.77;10.87;;;;;;;;;;5102759;28;20272;-64
2023/07/20 06:18:27;;;;;;;11.73;10.52;;;;;;;;;;5100899;28;20278;-64
2023/07/20 06:20:52;;;;;;;12.48;10.93;;;;;;;;;;5102612;28;20024;-64
2023/07/20 06:23:20;;;;;;;12.40;11.10;;;;;;;;;;5094647;28;20035;-64
2023/07/20 06:25:45;;;;;;;13.65;11.75;;;;;;;;;;5110205;28;20400;-64
2023/07/20 06:28:11;;;;;;;14.18;10.52;;;;;;;;;;5110684;28;20027;-64
2023/07/20 06:30:36;;;;;;;12.82;10.15;;;;;;;;;;5111199;28;20065;-64
2023/07/20 06:33:02;;;;;;;14.67;10.40;;;;;;;;;;5106874;28;20095;-64
2023/07/20 06:35:27;;;;;;;22.13;10.98;;;;;;;;;;5109029;28;20270;-64
2023/07/20 06:37:52;;;;;;;15.00;10.45;;;;;;;;;;5110050;28;20032;-64
2023/07/20 06:40:17;;;;;;;13.02;10.05;;;;;;;;;;5112475;28;20436;-64
2023/07/20 06:42:43;;;;;;;9.82;8.93;;;;;;;;;;5099270;28;20027;-64
2023/07/20 06:45:08;;;;;;;12.95;9.85;;;;;;;;;;5097136;28;20031;-64
2023/07/20 06:47:34;;;;;;;12.68;10.38;;;;;;;;;;5103879;28;20052;-64
2023/07/20 06:49:59;;;;;;;10.20;8.90;;;;;;;;;;5110323;28;20064;-63
2023/07/20 06:52:24;;;;;;;10.98;9.70;;;;;;;;;;5110002;28;20030;-63
2023/07/20 06:54:50;;;;;;;9.50;7.50;;;;;;;;;;5096585;28;20023;-64
2023/07/20 06:57:15;;;;;;;10.05;8.40;;;;;;;;;;5100317;28;20035;-64
2023/07/20 06:59:40;;;;;;;13.45;7.95;;;;;;;;;;5108001;28;20745;-64
2023/07/20 07:02:05;;;;;;;15.23;7.13;;;;;;;;;;5101486;28;20028;-64
2023/07/20 07:04:31;;;;;;;8.53;6.97;;;;;;;;;;5104130;28;20392;-64
2023/07/20 07:06:56;;;;;;;9.07;6.93;;;;;;;;;;5108501;28;20273;-64
2023/07/20 07:09:22;;;;;;;9.93;7.40;;;;;;;;;;5096102;28;20032;-64
2023/07/20 07:11:48;;;;;;;7.38;6.18;;;;;;;;;;5109369;28;20772;-64
2023/07/20 07:14:13;;;;;;;8.85;7.20;;;;;;;;;;5101189;28;20023;-63
2023/07/20 07:16:38;;;;;;;7.30;5.82;;;;;;;;;;5096273;28;20020;-64
2023/07/20 07:19:05;;;;;;;8.93;6.10;;;;;;;;;;5107062;28;20490;-64
2023/07/20 07:21:30;;;;;;;9.20;5.70;;;;;;;;;;5098173;28;20270;-64
2023/07/20 07:23:57;;;;;;;7.43;5.82;;;;;;;;;;5095148;28;20024;-64
2023/07/20 07:26:22;;;;;;;7.85;6.50;;;;;;;;;;5098131;28;20039;-64
2023/07/20 07:28:48;;;;;;;7.75;6.82;;;;;;;;;;5104800;28;20032;-64
2023/07/20 07:31:13;;;;;;;8.97;6.30;;;;;;;;;;5107984;28;20094;-63
2023/07/20 07:33:38;;;;;;;7.35;5.70;;;;;;;;;;5094846;28;20312;-64
2023/07/20 07:36:03;;;;;;;8.43;6.22;;;;;;;;;;5098676;28;20055;-64
2023/07/20 07:38:29;;;;;;;7.13;5.75;;;;;;;;;;5114811;28;20377;-64
2023/07/20 07:40:54;;;;;;;8.98;5.75;;;;;;;;;;5105010;28;20050;-64
2023/07/20 07:43:19;;;;;;;6.40;4.55;;;;;;;;;;5095388;28;20023;-65
2023/07/20 07:45:45;;;;;;;6.93;5.23;;;;;;;;;;5105761;28;20027;-64
2023/07/20 07:48:14;;;;;;;6.50;4.70;;;;;;;;;;5110116;28;20262;-64
2023/07/20 07:50:40;;;;;;;10.57;5.07;;;;;;;;;;5106372;28;20280;-64
2023/07/20 07:53:05;;;;;;;9.43;5.88;;;;;;;;;;5103587;28;20070;-64
2023/07/20 07:55:31;;;;;;;8.05;5.88;;;;;;;;;;5103774;28;20479;-64
2023/07/20 07:57:56;;;;;;;9.70;5.35;;;;;;;;;;5108529;28;20084;-64
2023/07/20 08:00:21;;;;;;;7.20;5.50;;;;;;;;;;5115108;28;20031;-64
2023/07/20 08:02:48;;;;;;;10.30;4.47;;;;;;;;;;5100704;28;20306;-64
2023/07/20 08:05:13;;;;;;;5.68;4.38;;;;;;;;;;5107879;28;20024;-64
2023/07/20 08:07:39;;;;;;;6.18;4.35;;;;;;;;;;5110529;28;20382;-65
2023/07/20 08:10:04;;;;;;;7.32;4.05;;;;;;;;;;5101423;28;20032;-64
2023/07/20 08:12:30;;;;;;;3.08;1.95;;;;;;;;;;5112098;28;20023;-64
2023/07/20 08:14:55;;;;;;;5.82;3.10;;;;;;;;;;5096515;28;20448;-65
2023/07/20 08:17:20;;;;;;;5.20;3.67;;;;;;;;;;5113708;28;20026;-64
2023/07/20 08:19:46;;;;;;;6.78;4.68;;;;;;;;;;5101342;28;20763;-64
2023/07/20 08:22:12;;;;;;;7.68;4.80;;;;;;;;;;5114589;28;20058;-64
2023/07/20 08:24:40;;;;;;;5.55;3.72;;;;;;;;;;5114051;28;20415;-65
2023/07/20 08:27:05;;;;;;;4.80;3.40;;;;;;;;;;5109130;28;20070;-63
2023/07/20 08:29:30;;;;;;;9.00;4.57;;;;;;;;;;5094539;28;20032;-64
2023/07/20 08:31:56;;;;;;;4.60;3.80;;;;;;;;;;5110377;28;20081;-64
2023/07/20 08:34:21;;;;;;;6.77;4.90;;;;;;;;;;5107680;28;20266;-64
2023/07/20 08:36:46;;;;;;;7.00;4.35;;;;;;;;;;5101451;28;20296;-64
2023/07/20 08:39:11;;;;;;;5.83;4.30;;;;;;;;;;5100409;28;20102;-64
2023/07/20 08:41:37;;;;;;;5.43;3.27;;;;;;;;;;5094305;28;20262;-64
2023/07/20 08:44:02;;;;;;;4.95;3.50;;;;;;;;;;5114752;28;20258;-64
2023/07/20 08:46:28;;;;;;;5.53;3.00;;;;;;;;;;5114424;28;20567;-64
2023/07/20 08:48:54;;;;;;;5.55;3.30;;;;;;;;;;5113198;28;20332;-64
2023/07/20 08:51:20;;;;;;;5.22;3.42;;;;;;;;;;5097034;28;20012;-64
2023/07/20 08:53:47;;;;;;;5.45;4.10;;;;;;;;;;5101626;28;20487;-64
2023/07/20 08:56:13;;;;;;;5.32;4.22;;;;;;;;;;5107182;28;20118;-64
2023/07/20 08:58:39;;;;;;;6.03;3.55;;;;;;;;;;5097032;28;20089;-64
2023/07/20 09:01:04;;;;;;;6.60;3.88;;;;;;;;;;5104161;28;20378;-64
2023/07/20 09:03:29;;;;;;;6.70;4.18;;;;;;;;;;5096220;28;20446;-64
2023/07/20 09:05:55;;;;;;;4.63;3.40;;;;;;;;;;5099074;28;20102;-64
2023/07/20 09:08:20;;;;;;;4.85;3.22;;;;;;;;;;5101212;28;20016;-64
2023/07/20 09:10:45;;;;;;;4.10;2.72;;;;;;;;;;5112385;28;20038;-64
2023/07/20 09:13:14;;;;;;;5.17;3.23;;;;;;;;;;5101997;28;20432;-64
2023/07/20 09:15:45;;;;;;;6.03;3.53;;;;;;;;;;5112349;28;20620;-63
2023/07/20 09:18:11;;;;;;;5.07;3.60;;;;;;;;;;5100180;28;20160;-64
2023/07/20 09:20:36;;;;;;;5.63;3.83;;;;;;;;;;5113143;28;20106;-64
2023/07/20 09:23:04;;;;;;;5.25;3.83;;;;;;;;;;5103476;28;20301;-64
2023/07/20 09:25:30;;;;;;;7.25;3.85;;;;;;;;;;5101108;28;20492;-64
2023/07/20 09:27:55;;;;;;;5.88;3.70;;;;;;;;;;5104547;28;20062;-64
2023/07/20 09:30:24;;;;;;;5.00;3.25;;;;;;;;;;5107592;28;20024;-64
2023/07/20 09:32:53;;;;;;;3.78;2.75;;;;;;;;;;5098720;28;20024;-64
2023/07/20 09:35:19;;;;;;;4.72;3.00;;;;;;;;;;5100477;28;20035;-64
2023/07/20 09:37:55;;;;;;;9.20;3.50;;;;;;;;;;5105850;28;20024;-65
2023/07/20 09:40:20;;;;;;;6.30;3.53;;;;;;;;;;5113280;28;20047;-64
2023/07/20 09:42:46;;;;;;;5.47;3.22;;;;;;;;;;5105894;28;20086;-64
2023/07/20 09:45:11;;;;;;;3.80;2.53;;;;;;;;;;5095167;28;20024;-64
2023/07/20 09:47:38;;;;;;;5.60;3.65;;;;;;;;;;5099914;28;20020;-65
2023/07/20 09:50:03;;;;;;;4.95;3.17;;;;;;;;;;5095760;28;20065;-64
2023/07/20 09:52:29;;;;;;;5.15;2.97;;;;;;;;;;5103949;28;20103;-64
2023/07/20 09:54:55;;;;;;;5.55;3.08;;;;;;;;;;5106595;28;20450;-64
2023/07/20 09:57:21;;;;;;;5.57;2.90;;;;;;;;;;5095285;28;20043;-64
2023/07/20 09:59:46;;;;;;;4.20;2.60;;;;;;;;;;5074517;28;20117;-64
2023/07/20 10:02:21;;;;;;;4.45;2.80;;;;;;;;;;5092892;28;20024;-64
2023/07/20 10:04:46;;;;;;;3.88;2.42;;;;;;;;;;5102538;28;20462;-64
2023/07/20 10:07:13;;;;;;;4.03;2.90;;;;;;;;;;5101955;28;20027;-64
2023/07/20 10:09:39;;;;;;;5.65;3.30;;;;;;;;;;5108757;28;20102;-64
2023/07/20 10:12:07;;;;;;;3.70;2.58;;;;;;;;;;5101469;28;20047;-64
2023/07/20 10:14:35;;;;;;;5.25;3.30;;;;;;;;;;5103515;28;20015;-64
2023/07/20 10:17:01;;;;;;;4.28;2.50;;;;;;;;;;5105659;28;20023;-64
2023/07/20 10:19:26;;;;;;;3.83;2.58;;;;;;;;;;5112627;28;20081;-63
2023/07/20 10:21:56;;;;;;;4.90;2.67;;;;;;;;;;5100852;28;20401;-63
2023/07/20 10:24:22;;;;;;;3.35;2.35;;;;;;;;;;5104269;28;20457;-64
2023/07/20 10:26:47;;;;;;;4.85;2.97;;;;;;;;;;5104544;28;20095;-64
2023/07/20 10:29:13;;;;;;;9.90;2.92;;;;;;;;;;5103928;28;20072;-64
2023/07/20 10:31:39;;;;;;;4.10;2.60;;;;;;;;;;5111083;28;20032;-64
2023/07/20 10:34:04;;;;;;;3.58;2.25;;;;;;;;;;5111760;28;20028;-64
2023/07/20 10:36:30;;;;;;;6.85;2.80;;;;;;;;;;5112226;28;20031;-64
2023/07/20 10:38:56;;;;;;;3.80;2.53;;;;;;;;;;5110996;28;20494;-64
2023/07/20 10:41:27;;;;;;;12.15;2.90;;;;;;;;;;5094877;28;20020;-63
2023/07/20 10:43:57;;;;;;;5.30;2.17;;;;;;;;;;5093051;28;20040;-64
2023/07/20 10:46:38;;;;;;;4.03;2.25;;;;;;;;;;5102618;28;20024;-64
2023/07/20 10:49:04;;;;;;;4.70;2.42;;;;;;;;;;5098290;28;20032;-64
2023/07/20 10:51:29;;;;;;;3.70;2.38;;;;;;;;;;5092241;28;20040;-64
2023/07/20 10:53:58;;;;;;;3.80;2.28;;;;;;;;;;5101128;28;20120;-64
2023/07/20 10:56:25;;;;;;;4.95;2.33;;;;;;;;;;5105729;28;20351;-64
2023/07/20 10:58:54;;;;;;;4.90;2.38;;;;;;;;;;5106451;28;20028;-64
2023/07/20 11:01:20;;;;;;;4.38;1.95;;;;;;;;;;5105980;28;20057;-64
2023/07/20 11:03:50;;;;;;;3.93;2.43;;;;;;;;;;5108446;28;20031;-65
2023/07/20 11:06:27;;;;;;;3.10;1.83;;;;;;;;;;5105560;28;20316;-64
2023/07/20 11:08:56;;;;;;;3.28;1.50;;;;;;;;;;5095262;28;20016;-64
2023/07/20 11:11:23;;;;;;;3.38;1.83;;;;;;;;;;5103046;28;20103;-64
2023/07/20 11:13:56;;;;;;;3.95;2.15;;;;;;;;;;5097676;28;20056;-64
2023/07/20 11:16:32;;;;;;;3.30;1.47;;;;;;;;;;5094040;28;20104;-64
2023/07/20 11:18:58;;;;;;;3.65;1.77;;;;;;;;;;5093660;28;20051;-64
2023/07/20 11:21:23;;;;;;;3.33;1.73;;;;;;;;;;5094212;28;20526;-64
2023/07/20 11:23:49;;;;;;;6.50;1.43;;;;;;;;;;5094302;28;20099;-64
2023/07/20 11:26:15;;;;;;;2.55;1.65;;;;;;;;;;5094533;28;20270;-65
2023/07/20 11:28:40;;;;;;;4.43;2.42;;;;;;;;;;5094648;28;20073;-64
2023/07/20 11:31:06;;;;;;;2.30;1.42;;;;;;;;;;5093178;28;20028;-64
2023/07/20 11:33:31;;;;;;;3.40;2.08;;;;;;;;;;5092804;28;20032;-65
2023/07/20 11:35:56;;;;;;;3.27;1.77;;;;;;;;;;5110008;28;20019;-66
2023/07/20 11:38:23;;;;;;;5.25;1.85;;;;;;;;;;5098292;28;20310;-65
2023/07/20 11:40:49;;;;;;;3.33;1.83;;;;;;;;;;5109585;28;20458;-65
2023/07/20 11:43:14;;;;;;;3.72;1.92;;;;;;;;;;5092271;28;20027;-64
2023/07/20 11:45:40;;;;;;;3.67;2.08;;;;;;;;;;5091560;28;20035;-65
2023/07/20 11:48:05;;;;;;;3.40;1.58;;;;;;;;;;5104454;28;20016;-65
2023/07/20 11:50:30;;;;;;;3.72;1.98;;;;;;;;;;5102347;28;20019;-65
2023/07/20 11:52:56;;;;;;;2.47;1.30;;;;;;;;;;5102692;28;20016;-66
2023/07/20 11:55:21;;;;;;;3.50;1.48;;;;;;;;;;5101192;28;20020;-65
2023/07/20 11:58:02;;;;;;;3.40;1.42;;;;;;;;;;5109526;28;20032;-65
2023/07/20 12:00:27;;;;;;;2.58;1.42;;;;;;;;;;5104621;28;20027;-65
2023/07/20 12:02:53;;;;;;;3.03;1.03;;;;;;;;;;5090636;28;20032;-65
2023/07/20 12:05:18;;;;;;;2.00;0.90;;;;;;;;;;5091287;28;20031;-65
2023/07/20 12:07:44;;;;;;;2.25;0.98;;;;;;;;;;5098259;28;20043;-66
2023/07/20 12:10:12;;;;;;;3.07;1.60;;;;;;;;;;5099682;28;20028;-66
2023/07/20 12:12:39;;;;;;;2.45;1.20;;;;;;;;;;5099240;28;20850;-65
2023/07/20 12:15:17;;;;;;;2.78;1.58;;;;;;;;;;5107814;28;20427;-64
2023/07/20 12:17:46;;;;;;;6.40;1.52;;;;;;;;;;5097083;28;20020;-65
2023/07/20 12:20:14;;;;;;;2.80;1.20;;;;;;;;;;5104437;28;20032;-65
2023/07/20 12:22:41;;;;;;;3.15;1.40;;;;;;;;;;5106118;28;20048;-66
2023/07/20 12:25:08;;;;;;;3.45;1.42;;;;;;;;;;5098183;28;20549;-65
2023/07/20 12:27:41;;;;;;;2.75;1.17;;;;;;;;;;5103975;28;20020;-65
2023/07/20 12:30:07;;;;;;;3.38;1.48;;;;;;;;;;5108816;28;20127;-65
2023/07/20 12:32:32;;;;;;;3.15;1.38;;;;;;;;;;5100051;28;20502;-64
2023/07/20 12:35:00;;;;;;;2.78;1.10;;;;;;;;;;5100879;28;20034;-64
2023/07/20 12:37:26;;;;;;;4.43;1.58;;;;;;;;;;5110472;28;20027;-65
2023/07/20 12:39:51;;;;;;;2.58;1.30;;;;;;;;;;5099948;28;20061;-63
2023/07/20 12:42:17;;;;;;;6.65;1.42;;;;;;;;;;5096562;28;20036;-64
2023/07/20 12:44:42;;;;;;;17.40;1.13;;;;;;;;;;5106631;28;20474;-61
2023/07/20 12:47:07;;;;;;;4.43;1.30;;;;;;;;;;5098090;28;20262;-62
2023/07/20 12:49:32;;;;;;;2.70;0.93;;;;;;;;;;5107939;28;20277;-62
2023/07/20 12:51:58;;;;;;;2.17;1.10;;;;;;;;;;5093806;28;20274;-62
2023/07/20 12:54:23;;;;;;;3.00;1.40;;;;;;;;;;5095760;28;20040;-62
2023/07/20 12:56:48;;;;;;;2.55;1.33;;;;;;;;;;5105205;28;20020;-61
2023/07/20 12:59:14;;;;;;;2.60;1.15;;;;;;;;;;5107846;28;20391;-62
2023/07/20 13:01:41;;;;;;;3.60;1.80;;;;;;;;;;5102289;28;20095;-62
2023/07/20 13:04:08;;;;;;;2.45;1.17;;;;;;;;;;5104468;28;20298;-61
2023/07/20 13:06:34;;;;;;;2.70;1.45;;;;;;;;;;5100234;28;20068;-62
2023/07/20 13:08:59;;;;;;;2.60;1.38;;;;;;;;;;5101569;28;20027;-62
2023/07/20 13:11:24;;;;;;;1.80;1.10;;;;;;;;;;5107518;28;20169;-62
2023/07/20 13:13:50;;;;;;;2.77;1.30;;;;;;;;;;5102144;28;20262;-62
2023/07/20 13:16:15;;;;;;;2.30;1.30;;;;;;;;;;5105436;28;20273;-62
2023/07/20 13:18:40;;;;;;;2.42;1.27;;;;;;;;;;5102556;28;20273;-62
2023/07/20 13:21:10;;;;;;;1.90;1.07;;;;;;;;;;5109770;28;20095;-62
2023/07/20 13:23:39;;;;;;;2.85;1.40;;;;;;;;;;5100586;28;20767;-63
2023/07/20 13:26:04;;;;;;;4.07;1.75;;;;;;;;;;5104680;28;20081;-63
2023/07/20 13:28:30;;;;;;;3.72;1.60;;;;;;;;;;5104554;28;20451;-62
2023/07/20 13:30:55;;;;;;;3.35;1.52;;;;;;;;;;5103661;28;20514;-63
2023/07/20 13:33:20;;;;;;;4.90;1.60;;;;;;;;;;5103730;28;20020;-63
2023/07/20 13:35:46;;;;;;;4.80;1.27;;;;;;;;;;5102251;28;20323;-62
2023/07/20 13:38:11;;;;;;;2.58;1.40;;;;;;;;;;5103178;28;20266;-64
2023/07/20 13:40:37;;;;;;;2.70;1.27;;;;;;;;;;5101805;28;20081;-65
2023/07/20 13:43:02;;;;;;;5.07;1.58;;;;;;;;;;5103186;28;20814;-64
2023/07/20 13:45:27;;;;;;;2.80;1.30;;;;;;;;;;5107865;28;20055;-64
2023/07/20 13:47:52;;;;;;;2.53;1.23;;;;;;;;;;5104300;28;20790;-64
2023/07/20 13:50:18;;;;;;;3.60;1.33;;;;;;;;;;5099482;28;20632;-65
2023/07/20 13:52:43;;;;;;;1.90;1.03;;;;;;;;;;5104171;28;20390;-64
2023/07/20 13:55:08;;;;;;;3.10;1.40;;;;;;;;;;5106385;28;20346;-61
2023/07/20 13:57:33;;;;;;;3.10;1.73;;;;;;;;;;5110378;28;20285;-62
2023/07/20 14:00:00;;;;;;;2.77;1.20;;;;;;;;;;5083772;28;20085;-64
2023/07/20 14:02:25;;;;;;;3.17;1.50;;;;;;;;;;5094028;28;20284;-64
2023/07/20 14:04:51;;;;;;;3.97;1.67;;;;;;;;;;5103174;28;20103;-64
2023/07/20 14:07:16;;;;;;;4.32;1.75;;;;;;;;;;5099544;28;20330;-63
2023/07/20 14:09:41;;;;;;;3.17;1.70;;;;;;;;;;5112740;28;20023;-62
2023/07/20 14:12:08;;;;;;;3.43;1.70;;;;;;;;;;5094085;28;20736;-61
2023/07/20 14:14:33;;;;;;;2.42;1.38;;;;;;;;;;5106007;28;20342;-61
2023/07/20 14:16:58;;;;;;;4.97;1.67;;;;;;;;;;5110953;28;20023;-62
2023/07/20 14:19:24;;;;;;;2.23;1.30;;;;;;;;;;5109776;28;20270;-61
2023/07/20 14:21:49;;;;;;;4.78;2.00;;;;;;;;;;5111282;28;20276;-61
2023/07/20 14:24:14;;;;;;;2.65;1.40;;;;;;;;;;5098663;28;20443;-61
2023/07/20 14:26:39;;;;;;;2.63;1.67;;;;;;;;;;5106124;28;20059;-63
2023/07/20 14:29:05;;;;;;;3.17;1.40;;;;;;;;;;5095804;28;20277;-65
2023/07/20 14:31:30;;;;;;;3.03;1.47;;;;;;;;;;5103070;28;20281;-60